Time;durP1;ratioP1;P1;durP2;ratioP2;P2;SDS_P1;SDS_P2;PMS_P1;PMS_P2;Temp;Humidity;BMP_temperature;BMP_pressure;BME280_temperature;BME280_humidity;BME280_pressure;Samples;Min_cycle;Max_cycle;Signal;HPM_P1;HPM_P2
2023/05/31 00:00:20;;;;;;;1999.90;999.90;;;;;;;21.32;44.65;102773.59;5058484;28;20074;-69
2023/05/31 00:02:46;;;;;;;1999.90;999.90;;;;;;;21.10;45.73;102776.81;5069835;28;20064;-70
2023/05/31 00:05:11;;;;;;;1999.90;999.90;;;;;;;22.22;42.93;102773.97;5071102;28;20484;-69
2023/05/31 00:07:37;;;;;;;1999.90;999.90;;;;;;;22.53;42.60;102777.50;5064354;28;20412;-70
2023/05/31 00:10:02;;;;;;;1999.90;999.90;;;;;;;21.78;43.57;102777.78;5057724;28;20032;-70
2023/05/31 00:12:27;;;;;;;1999.90;999.90;;;;;;;21.92;43.34;102773.88;5052014;28;20092;-70
2023/05/31 00:14:53;;;;;;;1999.90;999.90;;;;;;;21.42;43.91;102776.91;5068247;28;20572;-69
2023/05/31 00:17:18;;;;;;;1999.90;999.90;;;;;;;21.85;43.36;102774.03;5069560;28;20021;-69
2023/05/31 00:19:44;;;;;;;1999.90;999.90;;;;;;;21.51;44.62;102772.25;5065641;28;20423;-70
2023/05/31 00:22:10;;;;;;;1999.90;999.90;;;;;;;21.96;42.82;102767.56;5051376;28;20116;-69
2023/05/31 00:24:36;;;;;;;1999.90;999.90;;;;;;;21.39;44.86;102775.22;5059420;28;20036;-71
2023/05/31 00:27:01;;;;;;;1999.90;999.90;;;;;;;22.27;42.40;102770.25;5055819;28;20025;-69
2023/05/31 00:29:27;;;;;;;1999.90;999.90;;;;;;;22.21;42.87;102770.41;5050143;28;20389;-69
2023/05/31 00:31:52;;;;;;;1999.90;999.90;;;;;;;22.17;42.78;102774.06;5048740;28;20036;-68
2023/05/31 00:34:18;;;;;;;1999.90;999.90;;;;;;;21.95;43.03;102760.50;5050210;28;20024;-69
2023/05/31 00:36:43;;;;;;;1999.90;999.90;;;;;;;21.38;44.28;102762.84;5051216;28;20028;-69
2023/05/31 00:39:10;;;;;;;1999.90;999.90;;;;;;;21.87;43.54;102766.00;5060983;28;20400;-69
2023/05/31 00:41:35;;;;;;;1999.90;999.90;;;;;;;21.76;43.57;102768.09;5068726;28;20057;-68
2023/05/31 00:44:00;;;;;;;1999.90;999.90;;;;;;;21.47;43.86;102765.28;5050965;28;20033;-69
2023/05/31 00:46:28;;;;;;;1999.90;999.90;;;;;;;20.68;45.78;102763.59;5049698;28;20385;-67
2023/05/31 00:48:55;;;;;;;1999.90;999.90;;;;;;;21.43;44.99;102765.38;5049339;28;20100;-69
2023/05/31 00:51:21;;;;;;;1999.90;999.90;;;;;;;21.94;42.79;102756.06;5049528;28;20469;-70
2023/05/31 00:53:47;;;;;;;1999.90;999.90;;;;;;;21.55;43.84;102759.75;5052853;28;20069;-70
2023/05/31 00:56:12;;;;;;;1999.90;999.90;;;;;;;21.29;44.74;102763.06;5069894;28;20032;-70
2023/05/31 00:58:44;;;;;;;1999.90;999.90;;;;;;;21.88;43.07;102769.56;5062549;28;20094;-69
2023/05/31 01:01:10;;;;;;;1999.90;999.90;;;;;;;21.31;44.28;102764.78;5057566;28;20040;-69
2023/05/31 01:03:35;;;;;;;1999.90;999.90;;;;;;;21.00;44.82;102767.28;5070219;28;20108;-69
2023/05/31 01:06:01;;;;;;;1999.90;999.90;;;;;;;20.96;45.32;102777.09;5069832;28;20477;-68
2023/05/31 01:08:28;;;;;;;1999.90;999.90;;;;;;;21.93;43.00;102770.31;5068924;28;20373;-69
2023/05/31 01:10:58;;;;;;;1999.90;999.90;;;;;;;21.40;44.30;102774.28;5069728;28;20024;-69
2023/05/31 01:13:38;;;;;;;1999.90;999.90;;;;;;;21.15;44.94;102769.56;5065354;28;20028;-69
2023/05/31 01:16:14;;;;;;;1999.90;999.90;;;;;;;21.40;44.16;102776.94;5049242;28;20028;-68
2023/05/31 01:19:00;;;;;;;1999.90;999.90;;;;;;;20.92;45.02;102766.59;5065805;28;20032;-69
2023/05/31 01:21:37;;;;;;;1999.90;999.90;;;;;;;21.08;45.22;102775.97;5067763;28;20123;-69
2023/05/31 01:24:24;;;;;;;1999.90;999.90;;;;;;;21.49;44.20;102773.22;5064925;28;20028;-70
2023/05/31 01:26:51;;;;;;;1999.90;999.90;;;;;;;21.19;44.82;102763.28;5048246;28;20385;-70
2023/05/31 01:29:23;;;;;;;1999.90;999.90;;;;;;;21.82;43.44;102757.31;5049453;28;20884;-69
2023/05/31 01:31:51;;;;;;;1999.90;999.90;;;;;;;21.31;43.71;102767.44;5056728;28;20025;-70
2023/05/31 01:34:16;;;;;;;1999.90;999.90;;;;;;;21.62;43.40;102766.66;5062965;28;20039;-69
2023/05/31 01:36:41;;;;;;;1999.90;999.90;;;;;;;20.75;45.41;102767.84;5055939;28;20405;-69
2023/05/31 01:39:08;;;;;;;1999.90;999.90;;;;;;;20.30;46.52;102776.72;5052241;28;20057;-69
2023/05/31 01:41:39;;;;;;;1999.90;999.90;;;;;;;21.12;45.07;102764.34;5048622;28;20127;-69
2023/05/31 01:44:06;;;;;;;1999.90;999.90;;;;;;;20.21;46.90;102770.72;5052735;28;20024;-69
2023/05/31 01:46:32;;;;;;;1999.90;999.90;;;;;;;20.83;45.37;102760.56;5062679;28;20105;-69
2023/05/31 01:48:58;;;;;;;1999.90;999.90;;;;;;;21.43;44.29;102760.94;5051612;28;20489;-69
2023/05/31 01:51:25;;;;;;;1999.90;999.90;;;;;;;20.86;44.88;102764.94;5050664;28;20064;-70
2023/05/31 01:53:50;;;;;;;1999.90;999.90;;;;;;;20.38;47.16;102768.59;5047875;28;20029;-70
2023/05/31 01:56:19;;;;;;;1999.90;999.90;;;;;;;20.81;45.98;102766.84;5048247;28;20036;-70
2023/05/31 01:58:48;;;;;;;1999.90;999.90;;;;;;;20.88;45.51;102768.44;5052077;28;20103;-69
2023/05/31 02:01:16;;;;;;;1999.90;999.90;;;;;;;19.89;47.27;102774.88;5052268;28;20105;-69
2023/05/31 02:03:42;;;;;;;1999.90;999.90;;;;;;;21.25;44.56;102767.56;5049097;28;20025;-69
2023/05/31 02:06:07;;;;;;;1999.90;999.90;;;;;;;20.31;46.21;102769.66;5050288;28;20025;-69
2023/05/31 02:08:33;;;;;;;1999.90;999.90;;;;;;;19.99;46.82;102774.69;5048146;28;20471;-69
2023/05/31 02:10:58;;;;;;;1999.90;999.90;;;;;;;20.48;46.44;102770.19;5060204;28;20176;-70
2023/05/31 02:13:26;;;;;;;1999.90;999.90;;;;;;;20.36;46.07;102775.75;5070250;28;20039;-70
2023/05/31 02:15:51;;;;;;;1999.90;999.90;;;;;;;19.96;46.51;102768.53;5068110;28;20535;-70
2023/05/31 02:18:17;;;;;;;1999.90;999.90;;;;;;;20.11;46.71;102754.09;5062116;28;20056;-69
2023/05/31 02:20:43;;;;;;;1999.90;999.90;;;;;;;20.66;45.65;102749.41;5047502;28;20037;-69
2023/05/31 02:23:09;;;;;;;1999.90;999.90;;;;;;;20.65;45.71;102750.34;5053743;28;20151;-70
2023/05/31 02:25:34;;;;;;;1999.90;999.90;;;;;;;21.08;44.98;102752.03;5055418;28;20456;-69
2023/05/31 02:28:00;;;;;;;1999.90;999.90;;;;;;;21.17;44.16;102753.56;5068562;28;20293;-70
2023/05/31 02:30:27;;;;;;;1999.90;999.90;;;;;;;20.55;45.57;102759.41;5068592;28;20492;-70
2023/05/31 02:32:53;;;;;;;1999.90;999.90;;;;;;;21.63;43.26;102763.09;5064520;28;20160;-70
2023/05/31 02:35:19;;;;;;;1999.90;999.90;;;;;;;20.10;47.21;102773.59;5049517;28;20132;-70
2023/05/31 02:37:45;;;;;;;1999.90;999.90;;;;;;;20.02;47.17;102765.78;5046343;28;20029;-70
2023/05/31 02:40:10;;;;;;;1999.90;999.90;;;;;;;20.22;46.80;102767.16;5067739;28;20025;-70
2023/05/31 02:42:42;;;;;;;1999.90;999.90;;;;;;;20.47;45.77;102760.44;5068258;28;20081;-70
2023/05/31 02:45:09;;;;;;;1999.90;999.90;;;;;;;20.72;45.81;102757.28;5066846;28;20492;-70
2023/05/31 02:47:36;;;;;;;1999.90;999.90;;;;;;;21.46;43.53;102757.28;5068443;28;20077;-70
2023/05/31 02:50:02;;;;;;;1999.90;999.90;;;;;;;21.32;43.43;102755.00;5056369;28;20028;-70
2023/05/31 02:52:27;;;;;;;1999.90;999.90;;;;;;;21.58;43.27;102751.69;5059443;28;20036;-70
2023/05/31 02:54:53;;;;;;;1999.90;999.90;;;;;;;21.07;44.03;102747.63;5053549;28;20025;-71
2023/05/31 02:57:18;;;;;;;1999.90;999.90;;;;;;;21.02;44.31;102736.25;5054751;28;20135;-70
2023/05/31 02:59:46;;;;;;;1999.90;999.90;;;;;;;20.77;44.88;102744.78;5049493;28;20524;-71
2023/05/31 03:02:11;;;;;;;1999.90;999.90;;;;;;;20.67;45.31;102749.38;5049490;28;20028;-71
2023/05/31 03:04:37;;;;;;;1999.90;999.90;;;;;;;20.48;45.56;102753.34;5049291;28;20036;-71
2023/05/31 03:07:02;;;;;;;1999.90;999.90;;;;;;;20.76;45.23;102748.34;5056353;28;20085;-71
2023/05/31 03:09:28;;;;;;;1999.90;999.90;;;;;;;20.63;45.57;102741.53;5066888;28;20043;-71
2023/05/31 03:11:53;;;;;;;1999.90;999.90;;;;;;;21.08;44.63;102740.53;5069067;28;20511;-71
2023/05/31 03:14:19;;;;;;;1999.90;999.90;;;;;;;21.05;44.31;102738.81;5072182;28;20020;-71
2023/05/31 03:16:45;;;;;;;1999.90;999.90;;;;;;;21.13;43.48;102739.50;5060008;28;20032;-70
2023/05/31 03:19:12;;;;;;;1999.90;999.90;;;;;;;21.10;44.49;102736.94;5051576;28;20037;-71
2023/05/31 03:21:38;;;;;;;1999.90;999.90;;;;;;;21.07;43.92;102734.31;5053159;28;20100;-71
2023/05/31 03:24:04;;;;;;;1999.90;999.90;;;;;;;20.84;44.25;102735.75;5068090;28;20115;-71
2023/05/31 03:26:29;;;;;;;1999.90;999.90;;;;;;;19.90;47.04;102747.44;5055101;28;20549;-71
2023/05/31 03:28:55;;;;;;;1999.90;999.90;;;;;;;20.75;44.50;102735.97;5058110;28;20482;-69
2023/05/31 03:31:20;;;;;;;1999.90;999.90;;;;;;;20.91;44.01;102730.28;5052712;28;20025;-70
2023/05/31 03:33:45;;;;;;;1999.90;999.90;;;;;;;20.63;44.45;102734.41;5060326;28;20144;-71
2023/05/31 03:36:11;;;;;;;1999.90;999.90;;;;;;;20.51;45.53;102730.25;5069183;28;20416;-70
2023/05/31 03:38:36;;;;;;;1999.90;999.90;;;;;;;20.71;45.29;102728.97;5070694;28;20020;-70
2023/05/31 03:41:01;;;;;;;1999.90;999.90;;;;;;;20.59;45.17;102739.84;5071420;28;20143;-69
2023/05/31 03:43:27;;;;;;;1999.90;999.90;;;;;;;20.75;45.14;102730.66;5072898;28;20384;-70
2023/05/31 03:45:52;;;;;;;1999.90;999.90;;;;;;;20.14;46.07;102736.34;5070282;28;20028;-71
2023/05/31 03:48:18;;;;;;;1999.90;999.90;;;;;;;20.37;45.88;102739.44;5063773;28;20732;-70
2023/05/31 03:50:43;;;;;;;1999.90;999.90;;;;;;;20.19;46.09;102746.00;5060866;28;20032;-70
2023/05/31 03:53:09;;;;;;;1999.90;999.90;;;;;;;20.53;45.56;102737.34;5061697;28;20041;-71
2023/05/31 03:55:34;;;;;;;1999.90;999.90;;;;;;;20.46;45.92;102733.94;5063229;28;20036;-71
2023/05/31 03:58:00;;;;;;;1999.90;999.90;;;;;;;21.02;44.38;102733.59;5065891;28;20111;-71
2023/05/31 04:00:25;;;;;;;1999.90;999.90;;;;;;;19.31;48.16;102756.38;5060214;28;20519;-70
2023/05/31 04:02:51;;;;;;;1999.90;999.90;;;;;;;20.67;45.34;102743.19;5067709;28;20032;-71
2023/05/31 04:05:17;;;;;;;1999.90;999.90;;;;;;;20.62;45.64;102745.97;5070321;28;20456;-70
2023/05/31 04:07:42;;;;;;;1999.90;999.90;;;;;;;20.34;45.31;102740.38;5051259;28;20477;-71
2023/05/31 04:10:08;;;;;;;1999.90;999.90;;;;;;;19.50;47.43;102752.53;5053428;28;20028;-70
2023/05/31 04:12:34;;;;;;;1999.90;999.90;;;;;;;19.97;46.34;102755.25;5067285;28;20594;-70
2023/05/31 04:14:59;;;;;;;1999.90;999.90;;;;;;;19.99;46.42;102758.75;5060112;28;20472;-71
2023/05/31 04:17:24;;;;;;;1999.90;999.90;;;;;;;19.43;48.08;102756.19;5062345;28;20032;-70
2023/05/31 04:19:51;;;;;;;1999.90;999.90;;;;;;;20.04;46.68;102752.47;5067515;28;20032;-70
2023/05/31 04:22:16;;;;;;;1999.90;999.90;;;;;;;19.81;48.01;102754.66;5065793;28;20032;-70
2023/05/31 04:24:41;;;;;;;1999.90;999.90;;;;;;;19.72;47.71;102752.16;5066022;28;20032;-70
2023/05/31 04:27:07;;;;;;;1999.90;999.90;;;;;;;20.89;44.73;102750.72;5055322;28;20025;-71
2023/05/31 04:29:32;;;;;;;1999.90;999.90;;;;;;;19.81;47.63;102762.63;5065642;28;20040;-71
2023/05/31 04:31:58;;;;;;;1999.90;999.90;;;;;;;20.87;45.20;102750.75;5051980;28;20033;-70
2023/05/31 04:34:24;;;;;;;1999.90;999.90;;;;;;;20.93;44.49;102761.25;5052455;28;20100;-70
2023/05/31 04:36:49;;;;;;;1999.90;999.90;;;;;;;21.41;43.98;102761.88;5049503;28;20036;-70
2023/05/31 04:39:15;;;;;;;1999.90;999.90;;;;;;;20.76;44.83;102758.97;5049667;28;20123;-70
2023/05/31 04:41:42;;;;;;;1999.90;999.90;;;;;;;20.88;45.13;102767.56;5059342;28;20024;-70
2023/05/31 04:44:07;;;;;;;1999.90;999.90;;;;;;;22.85;42.19;102761.44;5067898;28;20036;-70
2023/05/31 04:46:33;;;;;;;1999.90;999.90;;;;;;;20.49;44.95;102761.28;5049815;28;20035;-70
2023/05/31 04:49:00;;;;;;;1999.90;999.90;;;;;;;22.07;42.58;102752.16;5059935;28;20033;-70
2023/05/31 04:51:26;;;;;;;1999.90;999.90;;;;;;;23.28;40.29;102751.19;5049265;28;20443;-71
2023/05/31 04:53:52;;;;;;;1999.90;999.90;;;;;;;22.03;42.26;102758.50;5049834;28;20024;-70
2023/05/31 04:56:17;;;;;;;1999.90;999.90;;;;;;;22.27;41.56;102764.03;5054850;28;20035;-70
2023/05/31 04:58:43;;;;;;;1999.90;999.90;;;;;;;22.01;42.42;102757.66;5063739;28;20110;-69
2023/05/31 05:01:08;;;;;;;1999.90;999.90;;;;;;;22.57;41.75;102761.41;5070041;28;20086;-70
2023/05/31 05:03:34;;;;;;;1999.90;999.90;;;;;;;22.38;41.41;102756.66;5071439;28;20103;-70
2023/05/31 05:06:18;;;;;;;1999.90;999.90;;;;;;;20.73;46.17;102761.72;5068719;28;20127;-70
2023/05/31 05:08:44;;;;;;;1999.90;999.90;;;;;;;21.49;44.33;102754.59;5064332;28;20154;-69
2023/05/31 05:11:10;;;;;;;1999.90;999.90;;;;;;;21.63;43.85;102751.59;5053338;28;20090;-71
2023/05/31 05:13:36;;;;;;;1999.90;999.90;;;;;;;21.62;43.29;102753.34;5056001;28;20029;-70
2023/05/31 05:16:02;;;;;;;1999.90;999.90;;;;;;;20.88;44.87;102751.63;5048282;28;20386;-70
2023/05/31 05:18:27;;;;;;;1999.90;999.90;;;;;;;21.22;43.75;102750.81;5055974;28;20028;-70
2023/05/31 05:20:53;;;;;;;1999.90;999.90;;;;;;;20.93;45.11;102755.06;5068816;28;20021;-70
2023/05/31 05:23:18;;;;;;;1999.90;999.90;;;;;;;21.38;44.53;102756.63;5050129;28;20039;-70
2023/05/31 05:25:44;;;;;;;1999.90;999.90;;;;;;;21.60;44.32;102754.34;5048836;28;20059;-70
2023/05/31 05:28:10;;;;;;;1999.90;999.90;;;;;;;21.80;43.42;102753.78;5069459;28;20028;-70
2023/05/31 05:30:35;;;;;;;1999.90;999.90;;;;;;;21.27;45.15;102764.91;5068881;28;20469;-70
2023/05/31 05:33:01;;;;;;;1999.90;999.90;;;;;;;21.56;44.71;102766.84;5066028;28;20037;-70
2023/05/31 05:35:26;;;;;;;1999.90;999.90;;;;;;;21.08;45.14;102765.31;5065682;28;20025;-70
2023/05/31 05:37:52;;;;;;;1999.90;999.90;;;;;;;21.72;43.65;102761.09;5057739;28;20495;-70
2023/05/31 05:40:18;;;;;;;1999.90;999.90;;;;;;;21.15;45.10;102772.22;5069939;28;20024;-70
2023/05/31 05:42:43;;;;;;;1999.90;999.90;;;;;;;21.96;43.61;102760.44;5067160;28;20090;-70
2023/05/31 05:45:09;;;;;;;1999.90;999.90;;;;;;;20.65;46.07;102771.59;5060578;28;20078;-70
2023/05/31 05:47:35;;;;;;;1999.90;999.90;;;;;;;21.51;44.39;102774.91;5064897;28;20051;-70
2023/05/31 05:50:01;;;;;;;1999.90;999.90;;;;;;;22.61;42.67;102769.25;5054932;28;20505;-70
2023/05/31 05:52:27;;;;;;;1999.90;999.90;;;;;;;21.31;44.98;102771.88;5050343;28;20103;-69
2023/05/31 05:54:52;;;;;;;1999.90;999.90;;;;;;;22.08;43.84;102769.88;5050180;28;20422;-70
2023/05/31 05:57:19;;;;;;;1999.90;999.90;;;;;;;20.94;46.24;102773.63;5060668;28;20032;-70
2023/05/31 05:59:44;;;;;;;1999.90;999.90;;;;;;;21.49;45.23;102776.72;5069675;28;20055;-70
2023/05/31 06:02:10;;;;;;;1999.90;999.90;;;;;;;21.72;44.51;102762.00;5068396;28;20028;-70
2023/05/31 06:04:36;;;;;;;1999.90;999.90;;;;;;;20.90;46.21;102765.78;5065677;28;20035;-70
2023/05/31 06:07:01;;;;;;;1999.90;999.90;;;;;;;21.61;45.15;102772.03;5057013;28;20530;-70
2023/05/31 06:09:27;;;;;;;1999.90;999.90;;;;;;;22.33;43.38;102769.19;5068003;28;20033;-70
2023/05/31 06:11:52;;;;;;;1999.90;999.90;;;;;;;22.22;44.20;102771.28;5065981;28;20036;-72
2023/05/31 06:14:17;;;;;;;1999.90;999.90;;;;;;;23.26;41.52;102763.69;5063397;28;20025;-71
2023/05/31 06:16:43;;;;;;;1999.90;999.90;;;;;;;23.42;41.29;102772.06;5056305;28;20514;-72
2023/05/31 06:19:09;;;;;;;1999.90;999.90;;;;;;;22.24;44.03;102780.97;5062070;28;20036;-70
2023/05/31 06:21:35;;;;;;;1999.90;999.90;;;;;;;24.06;41.26;102771.66;5062852;28;20020;-70
2023/05/31 06:24:02;;;;;;;1999.90;999.90;;;;;;;24.73;38.36;102773.59;5068876;28;20457;-70
2023/05/31 06:26:27;;;;;;;1999.90;999.90;;;;;;;26.21;36.44;102769.19;5058035;28;20495;-70
2023/05/31 06:28:53;;;;;;;1999.90;999.90;;;;;;;27.78;33.88;102778.56;5053628;28;20032;-70
2023/05/31 06:31:18;;;;;;;1999.90;999.90;;;;;;;28.36;32.05;102781.78;5068742;28;20063;-70
2023/05/31 06:33:43;;;;;;;1999.90;999.90;;;;;;;28.46;31.45;102777.59;5052786;28;20037;-70
2023/05/31 06:36:09;;;;;;;1999.90;999.90;;;;;;;30.33;29.00;102780.03;5048058;28;20028;-70
2023/05/31 06:38:35;;;;;;;1999.90;999.90;;;;;;;30.20;29.68;102779.97;5049840;28;20512;-70
2023/05/31 06:41:00;;;;;;;1999.90;999.90;;;;;;;28.87;30.85;102778.94;5047943;28;20625;-70
2023/05/31 06:43:26;;;;;;;1999.90;999.90;;;;;;;29.44;30.23;102770.22;5050383;28;20032;-70
2023/05/31 06:45:51;;;;;;;1999.90;999.90;;;;;;;30.43;29.02;102770.41;5047993;28;20028;-70
2023/05/31 06:48:17;;;;;;;1999.90;999.90;;;;;;;31.37;27.90;102770.63;5060823;28;20035;-70
2023/05/31 06:50:42;;;;;;;1999.90;999.90;;;;;;;30.67;28.46;102771.66;5058643;28;20024;-70
2023/05/31 06:53:12;;;;;;;1999.90;999.90;;;;;;;30.00;29.07;102777.66;5050357;28;20050;-70
2023/05/31 06:55:38;;;;;;;1999.90;999.90;;;;;;;31.52;27.98;102774.94;5054297;28;20083;-70
2023/05/31 06:58:04;;;;;;;1999.90;999.90;;;;;;;32.38;26.42;102777.97;5057023;28;20032;-70
2023/05/31 07:00:29;;;;;;;1999.90;999.90;;;;;;;30.20;28.16;102768.31;5050257;28;20539;-69
2023/05/31 07:02:55;;;;;;;1999.90;999.90;;;;;;;30.81;28.07;102770.75;5049118;28;20060;-69
2023/05/31 07:05:21;;;;;;;1999.90;999.90;;;;;;;31.94;27.12;102772.94;5048851;28;20036;-69
2023/05/31 07:07:46;;;;;;;1999.90;999.90;;;;;;;31.69;26.71;102775.66;5053573;28;20060;-68
2023/05/31 07:10:12;;;;;;;1999.90;999.90;;;;;;;31.97;26.51;102770.00;5050135;28;20063;-69
2023/05/31 07:12:37;;;;;;;1999.90;999.90;;;;;;;33.08;24.97;102765.59;5049132;28;20028;-68
2023/05/31 07:15:05;;;;;;;1999.90;999.90;;;;;;;32.47;26.89;102771.91;5050480;28;20025;-69
2023/05/31 07:17:31;;;;;;;1999.90;999.90;;;;;;;32.84;25.08;102763.78;5062904;28;20037;-69
2023/05/31 07:19:56;;;;;;;1999.90;999.90;;;;;;;33.03;25.75;102773.19;5060675;28;20025;-69
2023/05/31 07:22:22;;;;;;;1999.90;999.90;;;;;;;30.89;27.52;102769.25;5060408;28;20087;-68
2023/05/31 07:24:48;;;;;;;1999.90;999.90;;;;;;;31.70;26.67;102771.97;5046396;28;20477;-68
2023/05/31 07:27:13;;;;;;;1999.90;999.90;;;;;;;31.73;27.48;102771.75;5052377;28;20025;-69
2023/05/31 07:29:39;;;;;;;1999.90;999.90;;;;;;;31.10;27.80;102766.09;5084579;28;20476;-69
2023/05/31 07:32:05;;;;;;;1999.90;999.90;;;;;;;30.36;28.99;102769.06;5066194;28;20029;-69
2023/05/31 07:34:31;;;;;;;1999.90;999.90;;;;;;;33.68;24.27;102757.41;5066327;28;20050;-69
2023/05/31 07:36:59;;;;;;;1999.90;999.90;;;;;;;34.48;24.56;102757.25;5067338;28;20476;-70
2023/05/31 07:39:25;;;;;;;1999.90;999.90;;;;;;;36.08;22.03;102762.75;5065919;28;20025;-68
2023/05/31 07:41:50;;;;;;;1999.90;999.90;;;;;;;33.31;25.31;102753.88;5058130;28;20396;-69
2023/05/31 07:44:18;;;;;;;1999.90;999.90;;;;;;;34.24;24.56;102754.72;5062914;28;20471;-69
2023/05/31 07:46:43;;;;;;;1999.90;999.90;;;;;;;34.39;23.96;102757.16;5060008;28;20111;-69
2023/05/31 07:49:09;;;;;;;1999.90;999.90;;;;;;;34.51;23.74;102756.16;5069043;28;20108;-69
2023/05/31 07:51:35;;;;;;;1999.90;999.90;;;;;;;35.18;23.33;102754.19;5067655;28;20066;-70
2023/05/31 07:54:02;;;;;;;1999.90;999.90;;;;;;;35.82;22.76;102752.34;5065421;28;20028;-70
2023/05/31 07:56:27;;;;;;;1999.90;999.90;;;;;;;34.96;23.65;102753.31;5063627;28;20036;-69
2023/05/31 07:58:52;;;;;;;1999.90;999.90;;;;;;;33.20;24.72;102748.38;5064675;28;20382;-69
2023/05/31 08:01:18;;;;;;;1999.90;999.90;;;;;;;35.60;22.37;102742.47;5051290;28;20040;-69
2023/05/31 08:03:43;;;;;;;1999.90;999.90;;;;;;;33.86;25.19;102745.09;5056386;28;20495;-70
2023/05/31 08:06:09;;;;;;;1999.90;999.90;;;;;;;34.82;23.25;102743.63;5057391;28;20508;-69
2023/05/31 08:08:35;;;;;;;1999.90;999.90;;;;;;;36.04;21.96;102736.81;5064380;28;20044;-70
2023/05/31 08:11:00;;;;;;;1999.90;999.90;;;;;;;36.33;21.94;102745.94;5068062;28;20020;-70
2023/05/31 08:13:29;;;;;;;1999.90;999.90;;;;;;;34.84;22.93;102740.78;5056536;28;20127;-70
2023/05/31 08:15:55;;;;;;;1999.90;999.90;;;;;;;32.67;25.19;102745.19;5053177;28;20043;-70
2023/05/31 08:18:21;;;;;;;1999.90;999.90;;;;;;;34.32;23.77;102741.41;5055307;28;20027;-70
2023/05/31 08:20:47;;;;;;;1999.90;999.90;;;;;;;34.19;24.22;102745.22;5067325;28;20063;-70
2023/05/31 08:23:20;;;;;;;1999.90;999.90;;;;;;;35.46;22.84;102741.84;5055013;28;20033;-69
2023/05/31 08:25:46;;;;;;;1999.90;999.90;;;;;;;35.56;22.46;102739.16;5054381;28;20111;-69
2023/05/31 08:28:11;;;;;;;1999.90;999.90;;;;;;;35.66;22.22;102742.78;5056331;28;20032;-69
2023/05/31 08:30:37;;;;;;;1999.90;999.90;;;;;;;36.44;22.08;102735.97;5058933;28;20028;-70
2023/05/31 08:33:02;;;;;;;1999.90;999.90;;;;;;;36.19;22.54;102738.16;5061755;28;20033;-70
2023/05/31 08:35:28;;;;;;;1999.90;999.90;;;;;;;35.95;21.57;102733.91;5054552;28;20032;-70
2023/05/31 08:37:54;;;;;;;1999.90;999.90;;;;;;;36.63;21.91;102727.78;5055754;28;20041;-70
2023/05/31 08:40:20;;;;;;;1999.90;999.90;;;;;;;36.71;20.77;102728.94;5062294;28;20052;-68
2023/05/31 08:42:52;;;;;;;1999.90;999.90;;;;;;;35.62;22.50;102735.03;5067006;28;20607;-69
2023/05/31 08:45:18;;;;;;;1999.90;999.90;;;;;;;33.63;24.62;102734.25;5055428;28;20033;-69
2023/05/31 08:47:51;;;;;;;1999.90;999.90;;;;;;;32.41;25.76;102729.03;5054984;28;20447;-68
2023/05/31 08:50:17;;;;;;;1999.90;999.90;;;;;;;34.58;23.97;102722.09;5066089;28;20054;-69
2023/05/31 08:52:45;;;;;;;1999.90;999.90;;;;;;;34.76;22.95;102724.22;5058618;28;20477;-69
2023/05/31 08:55:11;;;;;;;1999.90;999.90;;;;;;;34.77;24.50;102718.66;5055365;28;20443;-69
2023/05/31 08:57:38;;;;;;;1999.90;999.90;;;;;;;37.22;21.39;102718.72;5055800;28;20029;-69
2023/05/31 09:00:10;;;;;;;1999.90;999.90;;;;;;;35.97;21.33;102729.22;5053515;28;20048;-69
2023/05/31 09:02:37;;;;;;;1999.90;999.90;;;;;;;35.84;22.34;102728.59;5051020;28;20025;-69
2023/05/31 09:05:04;;;;;;;1999.90;999.90;;;;;;;37.07;20.91;102726.50;5048451;28;20459;-69
2023/05/31 09:07:30;;;;;;;1999.90;999.90;;;;;;;35.25;23.62;102721.94;5065428;28;20062;-69
2023/05/31 09:09:55;;;;;;;1999.90;999.90;;;;;;;35.94;22.30;102724.06;5062376;28;20040;-68
2023/05/31 09:12:21;;;;;;;1999.90;999.90;;;;;;;34.80;23.21;102720.28;5048908;28;20028;-69
2023/05/31 09:14:46;;;;;;;1999.90;999.90;;;;;;;36.50;21.18;102708.16;5049355;28;20039;-69
2023/05/31 09:17:13;;;;;;;1999.90;999.90;;;;;;;33.08;24.69;102716.84;5049649;28;20024;-68
2023/05/31 09:19:50;;;;;;;1999.90;999.90;;;;;;;34.79;22.88;102715.84;5054933;28;20028;-68
2023/05/31 09:22:15;;;;;;;1999.90;999.90;;;;;;;35.43;23.57;102704.03;5063884;28;20040;-69
2023/05/31 09:24:49;;;;;;;1999.90;999.90;;;;;;;36.09;22.53;102705.47;5052971;28;20040;-69
2023/05/31 09:27:15;;;;;;;1999.90;999.90;;;;;;;35.43;22.38;102700.47;5068642;28;20426;-68
2023/05/31 09:29:50;;;;;;;1999.90;999.90;;;;;;;36.90;21.94;102696.25;5064992;28;20029;-69
2023/05/31 09:32:17;;;;;;;1999.90;999.90;;;;;;;36.46;21.67;102695.81;5059001;28;20037;-69
2023/05/31 09:34:42;;;;;;;1999.90;999.90;;;;;;;36.86;22.72;102702.16;5054389;28;20111;-69
2023/05/31 09:37:08;;;;;;;1999.90;999.90;;;;;;;36.70;21.69;102691.81;5056444;28;20115;-69
2023/05/31 09:39:34;;;;;;;1999.90;999.90;;;;;;;37.49;21.59;102693.44;5060276;28;20103;-69
2023/05/31 09:42:00;;;;;;;1999.90;999.90;;;;;;;35.93;23.24;102700.56;5058230;28;20481;-69
2023/05/31 09:44:28;;;;;;;1999.90;999.90;;;;;;;35.49;22.74;102692.63;5052352;28;20040;-70
2023/05/31 09:46:54;;;;;;;1999.90;999.90;;;;;;;34.72;23.78;102692.91;5060327;28;20547;-69
2023/05/31 09:49:20;;;;;;;1999.90;999.90;;;;;;;36.08;22.20;102708.31;5050603;28;20032;-70
2023/05/31 09:51:52;;;;;;;1999.90;999.90;;;;;;;35.37;23.22;102698.28;5059740;28;20240;-69
2023/05/31 09:54:22;;;;;;;1999.90;999.90;;;;;;;34.58;24.52;102703.09;5036928;28;20079;-69
2023/05/31 09:56:47;;;;;;;1999.90;999.90;;;;;;;34.51;24.18;102691.00;5066034;28;20105;-69
2023/05/31 09:59:15;;;;;;;1999.90;999.90;;;;;;;35.64;23.73;102684.97;5066216;28;20153;-69
2023/05/31 10:01:41;;;;;;;1999.90;999.90;;;;;;;35.20;24.40;102684.31;5058631;28;20039;-69
2023/05/31 10:04:07;;;;;;;1999.90;999.90;;;;;;;36.76;21.75;102688.53;5058274;28;20028;-70
2023/05/31 10:06:36;;;;;;;1999.90;999.90;;;;;;;37.18;21.47;102680.03;5065252;28;20017;-69
2023/05/31 10:09:05;;;;;;;1999.90;999.90;;;;;;;35.74;22.88;102684.16;5063938;28;20028;-69
2023/05/31 10:11:35;;;;;;;1999.90;999.90;;;;;;;35.19;24.17;102688.00;5060582;28;20460;-68
2023/05/31 10:14:25;;;;;;;1999.90;999.90;;;;;;;37.21;22.39;102682.44;5061167;28;20547;-69
2023/05/31 10:16:54;;;;;;;1999.90;999.90;;;;;;;36.74;22.57;102676.91;5063377;28;20508;-68
2023/05/31 10:19:24;;;;;;;1999.90;999.90;;;;;;;37.63;20.59;102678.44;5058961;28;20077;-69
2023/05/31 10:21:49;;;;;;;1999.90;999.90;;;;;;;36.51;21.97;102678.06;5066267;28;20028;-69
2023/05/31 10:24:28;;;;;;;1999.90;999.90;;;;;;;35.81;23.00;102679.88;5068423;28;20028;-68
2023/05/31 10:27:05;;;;;;;1999.90;999.90;;;;;;;35.09;23.98;102678.91;5049360;28;20035;-68
2023/05/31 10:29:39;;;;;;;1999.90;999.90;;;;;;;35.08;23.35;102678.06;5047748;28;20544;-69
2023/05/31 10:32:13;;;;;;;1999.90;999.90;;;;;;;36.41;23.05;102665.44;5049118;28;20060;-69
2023/05/31 10:34:39;;;;;;;1999.90;999.90;;;;;;;36.56;22.52;102668.59;5061020;28;20039;-68
2023/05/31 10:37:06;;;;;;;1999.90;999.90;;;;;;;35.49;24.07;102670.88;5065057;28;20032;-69
2023/05/31 10:40:01;;;;;;;1999.90;999.90;;;;;;;35.79;23.22;102662.81;5049871;28;20460;-68
2023/05/31 10:42:44;;;;;;;1999.90;999.90;;;;;;;35.84;23.25;102668.75;5049898;28;20104;-69
2023/05/31 10:45:15;;;;;;;1999.90;999.90;;;;;;;37.37;21.41;102664.63;5068098;28;20074;-69